<?xml version="1.0" encoding="UTF-8"?>
<gpx xmlns="http://www.topografix.com/GPX/1/1" xmlns:xsi="http://www.w3.org/2001/XMLSchema-instance" version="1.1" xsi:schemaLocation="http://www.topografix.com/GPX/1/1 http://www.topografix.com/GPX/1/1/gpx.xsd">
  <metadata>
    <name>The Brineman Triathlon 2023 - Olympic Aquabike</name>
  </metadata>
  <trk>
    <name>The Brineman Triathlon 2023 - Olympic Aquabike</name>
    <trkseg>
      <trkpt lat="41.060246" lon="-112.055149">
        <ele>1288.680149</ele>
        <time>2024-09-06T10:30:00.000Z</time>
      </trkpt>
      <trkpt lat="41.060214" lon="-112.061114">
        <ele>1287.770429</ele>
        <time>2024-09-06T10:30:50.000Z</time>
      </trkpt>
      <trkpt lat="41.060225" lon="-112.062162">
        <ele>1287.535188</ele>
        <time>2024-09-06T10:30:59.000Z</time>
      </trkpt>
      <trkpt lat="41.060218" lon="-112.064692">
        <ele>1286.971213</ele>
        <time>2024-09-06T10:31:20.000Z</time>
      </trkpt>
      <trkpt lat="41.060214" lon="-112.069999">
        <ele>1285.738499</ele>
        <time>2024-09-06T10:32:04.000Z</time>
      </trkpt>
      <trkpt lat="41.060218" lon="-112.071755">
        <ele>1285.435828</ele>
        <time>2024-09-06T10:32:19.000Z</time>
      </trkpt>
      <trkpt lat="41.060264" lon="-112.073538">
        <ele>1285.206695</ele>
        <time>2024-09-06T10:32:34.000Z</time>
      </trkpt>
      <trkpt lat="41.060243" lon="-112.074224">
        <ele>1285.143009</ele>
        <time>2024-09-06T10:32:40.000Z</time>
      </trkpt>
      <trkpt lat="41.060265" lon="-112.074645">
        <ele>1285.104277</ele>
        <time>2024-09-06T10:32:44.000Z</time>
      </trkpt>
      <trkpt lat="41.060416" lon="-112.075333">
        <ele>1285.037666</ele>
        <time>2024-09-06T10:32:50.000Z</time>
      </trkpt>
      <trkpt lat="41.061067" lon="-112.077282">
        <ele>1285.004154</ele>
        <time>2024-09-06T10:33:08.000Z</time>
      </trkpt>
      <trkpt lat="41.061599" lon="-112.079068">
        <ele>1285.031383</ele>
        <time>2024-09-06T10:33:24.000Z</time>
      </trkpt>
      <trkpt lat="41.063043" lon="-112.083931">
        <ele>1285.361757</ele>
        <time>2024-09-06T10:34:08.000Z</time>
      </trkpt>
      <trkpt lat="41.063171" lon="-112.083933">
        <ele>1285.375861</ele>
        <time>2024-09-06T10:34:09.000Z</time>
      </trkpt>
      <trkpt lat="41.067808" lon="-112.083926">
        <ele>1286.890188</ele>
        <time>2024-09-06T10:35:01.000Z</time>
      </trkpt>
      <trkpt lat="41.071822" lon="-112.083907">
        <ele>1288.200874</ele>
        <time>2024-09-06T10:35:46.000Z</time>
      </trkpt>
      <trkpt lat="41.071963" lon="-112.083901">
        <ele>1288.243311</ele>
        <time>2024-09-06T10:35:48.000Z</time>
      </trkpt>
      <trkpt lat="41.0732" lon="-112.083889">
        <ele>1288.646491</ele>
        <time>2024-09-06T10:36:02.000Z</time>
      </trkpt>
      <trkpt lat="41.074718" lon="-112.083881">
        <ele>1288.970827</ele>
        <time>2024-09-06T10:36:19.000Z</time>
      </trkpt>
      <trkpt lat="41.074711" lon="-112.084873">
        <ele>1289.024349</ele>
        <time>2024-09-06T10:36:27.000Z</time>
      </trkpt>
      <trkpt lat="41.074731" lon="-112.086143">
        <ele>1289.036971</ele>
        <time>2024-09-06T10:36:38.000Z</time>
      </trkpt>
      <trkpt lat="41.074729" lon="-112.087523">
        <ele>1289.004486</ele>
        <time>2024-09-06T10:36:50.000Z</time>
      </trkpt>
      <trkpt lat="41.074734" lon="-112.087905">
        <ele>1288.986556</ele>
        <time>2024-09-06T10:36:53.000Z</time>
      </trkpt>
      <trkpt lat="41.074723" lon="-112.088078">
        <ele>1288.966169</ele>
        <time>2024-09-06T10:36:54.000Z</time>
      </trkpt>
      <trkpt lat="41.074739" lon="-112.088552">
        <ele>1288.913696</ele>
        <time>2024-09-06T10:36:58.000Z</time>
      </trkpt>
      <trkpt lat="41.074726" lon="-112.088746">
        <ele>1288.892511</ele>
        <time>2024-09-06T10:37:00.000Z</time>
      </trkpt>
      <trkpt lat="41.074741" lon="-112.088859">
        <ele>1288.878119</ele>
        <time>2024-09-06T10:37:01.000Z</time>
      </trkpt>
      <trkpt lat="41.074732" lon="-112.089058">
        <ele>1288.856472</ele>
        <time>2024-09-06T10:37:03.000Z</time>
      </trkpt>
      <trkpt lat="41.074726" lon="-112.089122">
        <ele>1288.847857</ele>
        <time>2024-09-06T10:37:04.000Z</time>
      </trkpt>
      <trkpt lat="41.074735" lon="-112.089196">
        <ele>1288.840279</ele>
        <time>2024-09-06T10:37:05.000Z</time>
      </trkpt>
      <trkpt lat="41.074727" lon="-112.089386">
        <ele>1288.819429</ele>
        <time>2024-09-06T10:37:07.000Z</time>
      </trkpt>
      <trkpt lat="41.074735" lon="-112.089639">
        <ele>1288.790298</ele>
        <time>2024-09-06T10:37:09.000Z</time>
      </trkpt>
      <trkpt lat="41.074745" lon="-112.090408">
        <ele>1288.703579</ele>
        <time>2024-09-06T10:37:15.000Z</time>
      </trkpt>
      <trkpt lat="41.074738" lon="-112.091501">
        <ele>1288.575395</ele>
        <time>2024-09-06T10:37:24.000Z</time>
      </trkpt>
      <trkpt lat="41.074759" lon="-112.093555">
        <ele>1288.530809</ele>
        <time>2024-09-06T10:37:41.000Z</time>
      </trkpt>
      <trkpt lat="41.074765" lon="-112.09407">
        <ele>1288.573012</ele>
        <time>2024-09-06T10:37:45.000Z</time>
      </trkpt>
      <trkpt lat="41.075279" lon="-112.094058">
        <ele>1288.628172</ele>
        <time>2024-09-06T10:37:51.000Z</time>
      </trkpt>
      <trkpt lat="41.076101" lon="-112.094061">
        <ele>1288.767565</ele>
        <time>2024-09-06T10:38:00.000Z</time>
      </trkpt>
      <trkpt lat="41.07692" lon="-112.094034">
        <ele>1288.918088</ele>
        <time>2024-09-06T10:38:09.000Z</time>
      </trkpt>
      <trkpt lat="41.077742" lon="-112.094055">
        <ele>1288.983836</ele>
        <time>2024-09-06T10:38:18.000Z</time>
      </trkpt>
      <trkpt lat="41.078981" lon="-112.094077">
        <ele>1288.999256</ele>
        <time>2024-09-06T10:38:32.000Z</time>
      </trkpt>
      <trkpt lat="41.079731" lon="-112.094124">
        <ele>1289.028289</ele>
        <time>2024-09-06T10:38:40.000Z</time>
      </trkpt>
      <trkpt lat="41.080471" lon="-112.094238">
        <ele>1289.058384</ele>
        <time>2024-09-06T10:38:48.000Z</time>
      </trkpt>
      <trkpt lat="41.081235" lon="-112.094389">
        <ele>1289.175276</ele>
        <time>2024-09-06T10:38:57.000Z</time>
      </trkpt>
      <trkpt lat="41.081504" lon="-112.094505">
        <ele>1289.245136</ele>
        <time>2024-09-06T10:39:00.000Z</time>
      </trkpt>
      <trkpt lat="41.081709" lon="-112.094645">
        <ele>1289.302262</ele>
        <time>2024-09-06T10:39:03.000Z</time>
      </trkpt>
      <trkpt lat="41.081834" lon="-112.094706">
        <ele>1289.333865</ele>
        <time>2024-09-06T10:39:04.000Z</time>
      </trkpt>
      <trkpt lat="41.081976" lon="-112.094703">
        <ele>1289.372609</ele>
        <time>2024-09-06T10:39:06.000Z</time>
      </trkpt>
      <trkpt lat="41.082431" lon="-112.09472">
        <ele>1289.482673</ele>
        <time>2024-09-06T10:39:11.000Z</time>
      </trkpt>
      <trkpt lat="41.083192" lon="-112.094792">
        <ele>1289.663906</ele>
        <time>2024-09-06T10:39:19.000Z</time>
      </trkpt>
      <trkpt lat="41.083662" lon="-112.094855">
        <ele>1289.774529</ele>
        <time>2024-09-06T10:39:24.000Z</time>
      </trkpt>
      <trkpt lat="41.084073" lon="-112.09492">
        <ele>1289.87293</ele>
        <time>2024-09-06T10:39:29.000Z</time>
      </trkpt>
      <trkpt lat="41.085296" lon="-112.094901">
        <ele>1290.147684</ele>
        <time>2024-09-06T10:39:43.000Z</time>
      </trkpt>
      <trkpt lat="41.086009" lon="-112.09491">
        <ele>1290.305239</ele>
        <time>2024-09-06T10:39:51.000Z</time>
      </trkpt>
      <trkpt lat="41.086194" lon="-112.094913">
        <ele>1290.346859</ele>
        <time>2024-09-06T10:39:53.000Z</time>
      </trkpt>
      <trkpt lat="41.086703" lon="-112.094922">
        <ele>1290.482861</ele>
        <time>2024-09-06T10:39:59.000Z</time>
      </trkpt>
      <trkpt lat="41.086931" lon="-112.095053">
        <ele>1290.55485</ele>
        <time>2024-09-06T10:40:02.000Z</time>
      </trkpt>
      <trkpt lat="41.087116" lon="-112.095279">
        <ele>1290.623677</ele>
        <time>2024-09-06T10:40:05.000Z</time>
      </trkpt>
      <trkpt lat="41.087231" lon="-112.095373">
        <ele>1290.657121</ele>
        <time>2024-09-06T10:40:07.000Z</time>
      </trkpt>
      <trkpt lat="41.087317" lon="-112.095407">
        <ele>1290.681996</ele>
        <time>2024-09-06T10:40:08.000Z</time>
      </trkpt>
      <trkpt lat="41.088083" lon="-112.095391">
        <ele>1290.847011</ele>
        <time>2024-09-06T10:40:17.000Z</time>
      </trkpt>
      <trkpt lat="41.089227" lon="-112.095426">
        <ele>1290.957963</ele>
        <time>2024-09-06T10:40:30.000Z</time>
      </trkpt>
      <trkpt lat="41.090124" lon="-112.09542">
        <ele>1291.019636</ele>
        <time>2024-09-06T10:40:40.000Z</time>
      </trkpt>
      <trkpt lat="41.091543" lon="-112.095437">
        <ele>1291.084739</ele>
        <time>2024-09-06T10:40:56.000Z</time>
      </trkpt>
      <trkpt lat="41.092002" lon="-112.095442">
        <ele>1291.104767</ele>
        <time>2024-09-06T10:41:01.000Z</time>
      </trkpt>
      <trkpt lat="41.092187" lon="-112.095486">
        <ele>1291.112593</ele>
        <time>2024-09-06T10:41:03.000Z</time>
      </trkpt>
      <trkpt lat="41.092445" lon="-112.095617">
        <ele>1291.124325</ele>
        <time>2024-09-06T10:41:06.000Z</time>
      </trkpt>
      <trkpt lat="41.093622" lon="-112.096264">
        <ele>1291.1696</ele>
        <time>2024-09-06T10:41:20.000Z</time>
      </trkpt>
      <trkpt lat="41.094272" lon="-112.096623">
        <ele>1291.186166</ele>
        <time>2024-09-06T10:41:28.000Z</time>
      </trkpt>
      <trkpt lat="41.094362" lon="-112.09668">
        <ele>1291.188496</ele>
        <time>2024-09-06T10:41:29.000Z</time>
      </trkpt>
      <trkpt lat="41.094613" lon="-112.096676">
        <ele>1291.194036</ele>
        <time>2024-09-06T10:41:32.000Z</time>
      </trkpt>
      <trkpt lat="41.094713" lon="-112.09668">
        <ele>1291.196418</ele>
        <time>2024-09-06T10:41:33.000Z</time>
      </trkpt>
      <trkpt lat="41.094718" lon="-112.097893">
        <ele>1291.143205</ele>
        <time>2024-09-06T10:41:43.000Z</time>
      </trkpt>
      <trkpt lat="41.094714" lon="-112.098271">
        <ele>1291.121987</ele>
        <time>2024-09-06T10:41:46.000Z</time>
      </trkpt>
      <trkpt lat="41.094714" lon="-112.09876">
        <ele>1291.095407</ele>
        <time>2024-09-06T10:41:50.000Z</time>
      </trkpt>
      <trkpt lat="41.094723" lon="-112.099176">
        <ele>1291.072115</ele>
        <time>2024-09-06T10:41:53.000Z</time>
      </trkpt>
      <trkpt lat="41.094739" lon="-112.099287">
        <ele>1291.062886</ele>
        <time>2024-09-06T10:41:54.000Z</time>
      </trkpt>
      <trkpt lat="41.094752" lon="-112.099517">
        <ele>1291.0218</ele>
        <time>2024-09-06T10:41:56.000Z</time>
      </trkpt>
      <trkpt lat="41.094766" lon="-112.100094">
        <ele>1290.919607</ele>
        <time>2024-09-06T10:42:01.000Z</time>
      </trkpt>
      <trkpt lat="41.094705" lon="-112.100438">
        <ele>1290.857359</ele>
        <time>2024-09-06T10:42:04.000Z</time>
      </trkpt>
      <trkpt lat="41.094692" lon="-112.10066">
        <ele>1290.819225</ele>
        <time>2024-09-06T10:42:06.000Z</time>
      </trkpt>
      <trkpt lat="41.094698" lon="-112.101373">
        <ele>1290.692541</ele>
        <time>2024-09-06T10:42:12.000Z</time>
      </trkpt>
      <trkpt lat="41.094713" lon="-112.103139">
        <ele>1290.322037</ele>
        <time>2024-09-06T10:42:27.000Z</time>
      </trkpt>
      <trkpt lat="41.094766" lon="-112.103208">
        <ele>1290.3</ele>
        <time>2024-09-06T10:42:28.000Z</time>
      </trkpt>
      <trkpt lat="41.094782" lon="-112.103562">
        <ele>1290.221865</ele>
        <time>2024-09-06T10:42:31.000Z</time>
      </trkpt>
      <trkpt lat="41.09475" lon="-112.103684">
        <ele>1290.192313</ele>
        <time>2024-09-06T10:42:32.000Z</time>
      </trkpt>
      <trkpt lat="41.094746" lon="-112.104181">
        <ele>1290.086158</ele>
        <time>2024-09-06T10:42:36.000Z</time>
      </trkpt>
      <trkpt lat="41.094762" lon="-112.104392">
        <ele>1290.039383</ele>
        <time>2024-09-06T10:42:38.000Z</time>
      </trkpt>
      <trkpt lat="41.094795" lon="-112.104656">
        <ele>1289.979615</ele>
        <time>2024-09-06T10:42:40.000Z</time>
      </trkpt>
      <trkpt lat="41.095035" lon="-112.105561">
        <ele>1289.769106</ele>
        <time>2024-09-06T10:42:48.000Z</time>
      </trkpt>
      <trkpt lat="41.095326" lon="-112.106666">
        <ele>1289.510732</ele>
        <time>2024-09-06T10:42:58.000Z</time>
      </trkpt>
      <trkpt lat="41.095623" lon="-112.1078">
        <ele>1289.237141</ele>
        <time>2024-09-06T10:43:08.000Z</time>
      </trkpt>
      <trkpt lat="41.095721" lon="-112.108144">
        <ele>1289.151455</ele>
        <time>2024-09-06T10:43:11.000Z</time>
      </trkpt>
      <trkpt lat="41.095752" lon="-112.108451">
        <ele>1289.081782</ele>
        <time>2024-09-06T10:43:14.000Z</time>
      </trkpt>
      <trkpt lat="41.095757" lon="-112.10878">
        <ele>1289.014926</ele>
        <time>2024-09-06T10:43:17.000Z</time>
      </trkpt>
      <trkpt lat="41.09566" lon="-112.109346">
        <ele>1288.908171</ele>
        <time>2024-09-06T10:43:22.000Z</time>
      </trkpt>
      <trkpt lat="41.095581" lon="-112.109621">
        <ele>1288.851355</ele>
        <time>2024-09-06T10:43:24.000Z</time>
      </trkpt>
      <trkpt lat="41.094999" lon="-112.110763">
        <ele>1288.593926</ele>
        <time>2024-09-06T10:43:36.000Z</time>
      </trkpt>
      <trkpt lat="41.094733" lon="-112.111305">
        <ele>1288.488396</ele>
        <time>2024-09-06T10:43:41.000Z</time>
      </trkpt>
      <trkpt lat="41.094681" lon="-112.111487">
        <ele>1288.45482</ele>
        <time>2024-09-06T10:43:43.000Z</time>
      </trkpt>
      <trkpt lat="41.094666" lon="-112.111686">
        <ele>1288.420889</ele>
        <time>2024-09-06T10:43:45.000Z</time>
      </trkpt>
      <trkpt lat="41.094655" lon="-112.112055">
        <ele>1288.361296</ele>
        <time>2024-09-06T10:43:48.000Z</time>
      </trkpt>
      <trkpt lat="41.094669" lon="-112.112691">
        <ele>1288.253476</ele>
        <time>2024-09-06T10:43:53.000Z</time>
      </trkpt>
      <trkpt lat="41.092922" lon="-112.112701">
        <ele>1288.120888</ele>
        <time>2024-09-06T10:44:12.000Z</time>
      </trkpt>
      <trkpt lat="41.091627" lon="-112.112702">
        <ele>1288.112729</ele>
        <time>2024-09-06T10:44:26.000Z</time>
      </trkpt>
      <trkpt lat="41.091222" lon="-112.112708">
        <ele>1288.114847</ele>
        <time>2024-09-06T10:44:31.000Z</time>
      </trkpt>
      <trkpt lat="41.090551" lon="-112.112704">
        <ele>1288.048785</ele>
        <time>2024-09-06T10:44:38.000Z</time>
      </trkpt>
      <trkpt lat="41.089256" lon="-112.11272">
        <ele>1287.790099</ele>
        <time>2024-09-06T10:44:52.000Z</time>
      </trkpt>
      <trkpt lat="41.089251" lon="-112.113735">
        <ele>1287.341936</ele>
        <time>2024-09-06T10:45:01.000Z</time>
      </trkpt>
      <trkpt lat="41.089243" lon="-112.113785">
        <ele>1287.315432</ele>
        <time>2024-09-06T10:45:01.000Z</time>
      </trkpt>
      <trkpt lat="41.089257" lon="-112.114276">
        <ele>1287.054116</ele>
        <time>2024-09-06T10:45:05.000Z</time>
      </trkpt>
      <trkpt lat="41.089254" lon="-112.117159">
        <ele>1285.424093</ele>
        <time>2024-09-06T10:45:29.000Z</time>
      </trkpt>
      <trkpt lat="41.089268" lon="-112.119142">
        <ele>1284.711663</ele>
        <time>2024-09-06T10:45:46.000Z</time>
      </trkpt>
      <trkpt lat="41.089321" lon="-112.180712">
        <ele>1281.032958</ele>
        <time>2024-09-06T10:54:22.000Z</time>
      </trkpt>
      <trkpt lat="41.089258" lon="-112.185193">
        <ele>1281.000017</ele>
        <time>2024-09-06T10:55:00.000Z</time>
      </trkpt>
      <trkpt lat="41.089152" lon="-112.18679">
        <ele>1281.00002</ele>
        <time>2024-09-06T10:55:13.000Z</time>
      </trkpt>
      <trkpt lat="41.088984" lon="-112.188014">
        <ele>1281.000029</ele>
        <time>2024-09-06T10:55:23.000Z</time>
      </trkpt>
      <trkpt lat="41.088547" lon="-112.190039">
        <ele>1281.000032</ele>
        <time>2024-09-06T10:55:41.000Z</time>
      </trkpt>
      <trkpt lat="41.087959" lon="-112.19213">
        <ele>1281.000019</ele>
        <time>2024-09-06T10:56:00.000Z</time>
      </trkpt>
      <trkpt lat="41.087172" lon="-112.194462">
        <ele>1281.000028</ele>
        <time>2024-09-06T10:56:21.000Z</time>
      </trkpt>
      <trkpt lat="41.086682" lon="-112.195753">
        <ele>1281.000015</ele>
        <time>2024-09-06T10:56:33.000Z</time>
      </trkpt>
      <trkpt lat="41.084182" lon="-112.202788">
        <ele>1281.000019</ele>
        <time>2024-09-06T10:57:38.000Z</time>
      </trkpt>
      <trkpt lat="41.083786" lon="-112.204023">
        <ele>1281.000026</ele>
        <time>2024-09-06T10:57:49.000Z</time>
      </trkpt>
      <trkpt lat="41.082547" lon="-112.207519">
        <ele>1281.000024</ele>
        <time>2024-09-06T10:58:21.000Z</time>
      </trkpt>
      <trkpt lat="41.082199" lon="-112.208537">
        <ele>1281.000029</ele>
        <time>2024-09-06T10:58:30.000Z</time>
      </trkpt>
      <trkpt lat="41.081831" lon="-112.209535">
        <ele>1281.00003</ele>
        <time>2024-09-06T10:58:39.000Z</time>
      </trkpt>
      <trkpt lat="41.080464" lon="-112.213536">
        <ele>1281.000016</ele>
        <time>2024-09-06T10:59:16.000Z</time>
      </trkpt>
      <trkpt lat="41.08003" lon="-112.214669">
        <ele>1281.000029</ele>
        <time>2024-09-06T10:59:27.000Z</time>
      </trkpt>
      <trkpt lat="41.079804" lon="-112.215088">
        <ele>1281.000018</ele>
        <time>2024-09-06T10:59:31.000Z</time>
      </trkpt>
      <trkpt lat="41.079339" lon="-112.215757">
        <ele>1281.00002</ele>
        <time>2024-09-06T10:59:39.000Z</time>
      </trkpt>
      <trkpt lat="41.078634" lon="-112.216719">
        <ele>1281.00003</ele>
        <time>2024-09-06T10:59:50.000Z</time>
      </trkpt>
      <trkpt lat="41.076287" lon="-112.220033">
        <ele>1281.000016</ele>
        <time>2024-09-06T11:00:28.000Z</time>
      </trkpt>
      <trkpt lat="41.075035" lon="-112.22168">
        <ele>1281.000024</ele>
        <time>2024-09-06T11:00:48.000Z</time>
      </trkpt>
      <trkpt lat="41.074487" lon="-112.222263">
        <ele>1281.00002</ele>
        <time>2024-09-06T11:00:56.000Z</time>
      </trkpt>
      <trkpt lat="41.072138" lon="-112.224599">
        <ele>1281.000021</ele>
        <time>2024-09-06T11:01:29.000Z</time>
      </trkpt>
      <trkpt lat="41.066819" lon="-112.230163">
        <ele>1281.000028</ele>
        <time>2024-09-06T11:02:44.000Z</time>
      </trkpt>
      <trkpt lat="41.066612" lon="-112.230378">
        <ele>1281.000015</ele>
        <time>2024-09-06T11:02:47.000Z</time>
      </trkpt>
      <trkpt lat="41.061479" lon="-112.235604">
        <ele>1281.000025</ele>
        <time>2024-09-06T11:03:59.000Z</time>
      </trkpt>
      <trkpt lat="41.059941" lon="-112.237217">
        <ele>1281.00003</ele>
        <time>2024-09-06T11:04:21.000Z</time>
      </trkpt>
      <trkpt lat="41.060085" lon="-112.237548">
        <ele>1281.000032</ele>
        <time>2024-09-06T11:04:24.000Z</time>
      </trkpt>
      <trkpt lat="41.060107" lon="-112.237617">
        <ele>1281.000026</ele>
        <time>2024-09-06T11:04:25.000Z</time>
      </trkpt>
      <trkpt lat="41.060192" lon="-112.237826">
        <ele>1281.000031</ele>
        <time>2024-09-06T11:04:27.000Z</time>
      </trkpt>
      <trkpt lat="41.060113" lon="-112.237612">
        <ele>1281.000021</ele>
        <time>2024-09-06T11:04:29.000Z</time>
      </trkpt>
      <trkpt lat="41.060086" lon="-112.237558">
        <ele>1281.00003</ele>
        <time>2024-09-06T11:04:30.000Z</time>
      </trkpt>
      <trkpt lat="41.059926" lon="-112.237216">
        <ele>1281.000031</ele>
        <time>2024-09-06T11:04:33.000Z</time>
      </trkpt>
      <trkpt lat="41.061481" lon="-112.235618">
        <ele>1281.000023</ele>
        <time>2024-09-06T11:04:55.000Z</time>
      </trkpt>
      <trkpt lat="41.066613" lon="-112.230375">
        <ele>1281.000022</ele>
        <time>2024-09-06T11:06:07.000Z</time>
      </trkpt>
      <trkpt lat="41.066827" lon="-112.23016">
        <ele>1281.000029</ele>
        <time>2024-09-06T11:06:10.000Z</time>
      </trkpt>
      <trkpt lat="41.072151" lon="-112.224613">
        <ele>1281.000021</ele>
        <time>2024-09-06T11:07:25.000Z</time>
      </trkpt>
      <trkpt lat="41.074497" lon="-112.222248">
        <ele>1281.000026</ele>
        <time>2024-09-06T11:07:58.000Z</time>
      </trkpt>
      <trkpt lat="41.075026" lon="-112.221682">
        <ele>1281.000031</ele>
        <time>2024-09-06T11:08:06.000Z</time>
      </trkpt>
      <trkpt lat="41.076292" lon="-112.220037">
        <ele>1281.000017</ele>
        <time>2024-09-06T11:08:26.000Z</time>
      </trkpt>
      <trkpt lat="41.078623" lon="-112.216721">
        <ele>1281.000015</ele>
        <time>2024-09-06T11:09:04.000Z</time>
      </trkpt>
      <trkpt lat="41.079336" lon="-112.215748">
        <ele>1281.000028</ele>
        <time>2024-09-06T11:09:15.000Z</time>
      </trkpt>
      <trkpt lat="41.079803" lon="-112.215084">
        <ele>1281.000019</ele>
        <time>2024-09-06T11:09:23.000Z</time>
      </trkpt>
      <trkpt lat="41.08003" lon="-112.214681">
        <ele>1281.000018</ele>
        <time>2024-09-06T11:09:27.000Z</time>
      </trkpt>
      <trkpt lat="41.080479" lon="-112.21354">
        <ele>1281.000019</ele>
        <time>2024-09-06T11:09:38.000Z</time>
      </trkpt>
      <trkpt lat="41.081834" lon="-112.209536">
        <ele>1281.000032</ele>
        <time>2024-09-06T11:10:15.000Z</time>
      </trkpt>
      <trkpt lat="41.082201" lon="-112.208539">
        <ele>1281.000027</ele>
        <time>2024-09-06T11:10:24.000Z</time>
      </trkpt>
      <trkpt lat="41.082547" lon="-112.20751">
        <ele>1281.00002</ele>
        <time>2024-09-06T11:10:33.000Z</time>
      </trkpt>
      <trkpt lat="41.083784" lon="-112.204018">
        <ele>1281.000017</ele>
        <time>2024-09-06T11:11:05.000Z</time>
      </trkpt>
      <trkpt lat="41.084189" lon="-112.202792">
        <ele>1281.000032</ele>
        <time>2024-09-06T11:11:16.000Z</time>
      </trkpt>
      <trkpt lat="41.086687" lon="-112.195768">
        <ele>1281.000029</ele>
        <time>2024-09-06T11:12:21.000Z</time>
      </trkpt>
      <trkpt lat="41.087175" lon="-112.19447">
        <ele>1281.000019</ele>
        <time>2024-09-06T11:12:33.000Z</time>
      </trkpt>
      <trkpt lat="41.087963" lon="-112.192126">
        <ele>1281.000027</ele>
        <time>2024-09-06T11:12:55.000Z</time>
      </trkpt>
      <trkpt lat="41.088555" lon="-112.190033">
        <ele>1281.00002</ele>
        <time>2024-09-06T11:13:14.000Z</time>
      </trkpt>
      <trkpt lat="41.088976" lon="-112.188017">
        <ele>1281.000017</ele>
        <time>2024-09-06T11:13:32.000Z</time>
      </trkpt>
      <trkpt lat="41.089158" lon="-112.186797">
        <ele>1281.000023</ele>
        <time>2024-09-06T11:13:42.000Z</time>
      </trkpt>
      <trkpt lat="41.089259" lon="-112.185187">
        <ele>1281.000023</ele>
        <time>2024-09-06T11:13:56.000Z</time>
      </trkpt>
      <trkpt lat="41.089315" lon="-112.180707">
        <ele>1281.018948</ele>
        <time>2024-09-06T11:14:34.000Z</time>
      </trkpt>
      <trkpt lat="41.089261" lon="-112.119125">
        <ele>1284.673086</ele>
        <time>2024-09-06T11:23:10.000Z</time>
      </trkpt>
      <trkpt lat="41.089256" lon="-112.11717">
        <ele>1285.460357</ele>
        <time>2024-09-06T11:23:26.000Z</time>
      </trkpt>
      <trkpt lat="41.089254" lon="-112.114293">
        <ele>1287.11442</ele>
        <time>2024-09-06T11:23:50.000Z</time>
      </trkpt>
      <trkpt lat="41.089249" lon="-112.11378">
        <ele>1287.420415</ele>
        <time>2024-09-06T11:23:54.000Z</time>
      </trkpt>
      <trkpt lat="41.089258" lon="-112.113736">
        <ele>1287.433952</ele>
        <time>2024-09-06T11:23:54.000Z</time>
      </trkpt>
      <trkpt lat="41.089256" lon="-112.112715">
        <ele>1287.704143</ele>
        <time>2024-09-06T11:24:03.000Z</time>
      </trkpt>
      <trkpt lat="41.090546" lon="-112.112701">
        <ele>1288.062661</ele>
        <time>2024-09-06T11:24:17.000Z</time>
      </trkpt>
      <trkpt lat="41.091234" lon="-112.112704">
        <ele>1288.087221</ele>
        <time>2024-09-06T11:24:25.000Z</time>
      </trkpt>
      <trkpt lat="41.091625" lon="-112.112715">
        <ele>1288.101409</ele>
        <time>2024-09-06T11:24:29.000Z</time>
      </trkpt>
      <trkpt lat="41.092913" lon="-112.112698">
        <ele>1288.134015</ele>
        <time>2024-09-06T11:24:43.000Z</time>
      </trkpt>
      <trkpt lat="41.094659" lon="-112.112693">
        <ele>1288.281284</ele>
        <time>2024-09-06T11:25:02.000Z</time>
      </trkpt>
      <trkpt lat="41.094668" lon="-112.112061">
        <ele>1288.356833</ele>
        <time>2024-09-06T11:25:07.000Z</time>
      </trkpt>
      <trkpt lat="41.094668" lon="-112.111699">
        <ele>1288.398584</ele>
        <time>2024-09-06T11:25:10.000Z</time>
      </trkpt>
      <trkpt lat="41.094688" lon="-112.111495">
        <ele>1288.422366</ele>
        <time>2024-09-06T11:25:12.000Z</time>
      </trkpt>
      <trkpt lat="41.094728" lon="-112.111299">
        <ele>1288.455913</ele>
        <time>2024-09-06T11:25:14.000Z</time>
      </trkpt>
      <trkpt lat="41.094993" lon="-112.110767">
        <ele>1288.58295</ele>
        <time>2024-09-06T11:25:19.000Z</time>
      </trkpt>
      <trkpt lat="41.095571" lon="-112.109617">
        <ele>1288.86223</ele>
        <time>2024-09-06T11:25:31.000Z</time>
      </trkpt>
      <trkpt lat="41.095669" lon="-112.109333">
        <ele>1288.923269</ele>
        <time>2024-09-06T11:25:34.000Z</time>
      </trkpt>
      <trkpt lat="41.095759" lon="-112.108773">
        <ele>1289.037172</ele>
        <time>2024-09-06T11:25:39.000Z</time>
      </trkpt>
      <trkpt lat="41.095758" lon="-112.108454">
        <ele>1289.103706</ele>
        <time>2024-09-06T11:25:42.000Z</time>
      </trkpt>
      <trkpt lat="41.095728" lon="-112.108137">
        <ele>1289.164357</ele>
        <time>2024-09-06T11:25:45.000Z</time>
      </trkpt>
      <trkpt lat="41.095639" lon="-112.10779">
        <ele>1289.238927</ele>
        <time>2024-09-06T11:25:48.000Z</time>
      </trkpt>
      <trkpt lat="41.095338" lon="-112.106674">
        <ele>1289.491259</ele>
        <time>2024-09-06T11:25:58.000Z</time>
      </trkpt>
      <trkpt lat="41.095041" lon="-112.105573">
        <ele>1289.759492</ele>
        <time>2024-09-06T11:26:08.000Z</time>
      </trkpt>
      <trkpt lat="41.094792" lon="-112.104654">
        <ele>1289.977525</ele>
        <time>2024-09-06T11:26:16.000Z</time>
      </trkpt>
      <trkpt lat="41.094759" lon="-112.104391">
        <ele>1290.034736</ele>
        <time>2024-09-06T11:26:18.000Z</time>
      </trkpt>
      <trkpt lat="41.094749" lon="-112.104186">
        <ele>1290.079507</ele>
        <time>2024-09-06T11:26:20.000Z</time>
      </trkpt>
      <trkpt lat="41.094754" lon="-112.103685">
        <ele>1290.181228</ele>
        <time>2024-09-06T11:26:24.000Z</time>
      </trkpt>
      <trkpt lat="41.09465" lon="-112.103507">
        <ele>1290.227645</ele>
        <time>2024-09-06T11:26:26.000Z</time>
      </trkpt>
      <trkpt lat="41.094647" lon="-112.103204">
        <ele>1290.28939</ele>
        <time>2024-09-06T11:26:29.000Z</time>
      </trkpt>
      <trkpt lat="41.094725" lon="-112.103137">
        <ele>1290.315036</ele>
        <time>2024-09-06T11:26:30.000Z</time>
      </trkpt>
      <trkpt lat="41.094698" lon="-112.101391">
        <ele>1290.683745</ele>
        <time>2024-09-06T11:26:45.000Z</time>
      </trkpt>
      <trkpt lat="41.094701" lon="-112.100662">
        <ele>1290.835979</ele>
        <time>2024-09-06T11:26:51.000Z</time>
      </trkpt>
      <trkpt lat="41.094706" lon="-112.10045">
        <ele>1290.881788</ele>
        <time>2024-09-06T11:26:53.000Z</time>
      </trkpt>
      <trkpt lat="41.094763" lon="-112.100093">
        <ele>1290.948968</ele>
        <time>2024-09-06T11:26:56.000Z</time>
      </trkpt>
      <trkpt lat="41.09475" lon="-112.099528">
        <ele>1291.006951</ele>
        <time>2024-09-06T11:27:01.000Z</time>
      </trkpt>
      <trkpt lat="41.094719" lon="-112.099167">
        <ele>1291.042064</ele>
        <time>2024-09-06T11:27:04.000Z</time>
      </trkpt>
      <trkpt lat="41.094712" lon="-112.09876">
        <ele>1291.083759</ele>
        <time>2024-09-06T11:27:07.000Z</time>
      </trkpt>
      <trkpt lat="41.094722" lon="-112.098281">
        <ele>1291.131324</ele>
        <time>2024-09-06T11:27:11.000Z</time>
      </trkpt>
      <trkpt lat="41.094708" lon="-112.097899">
        <ele>1291.169308</ele>
        <time>2024-09-06T11:27:14.000Z</time>
      </trkpt>
      <trkpt lat="41.094715" lon="-112.096675">
        <ele>1291.184483</ele>
        <time>2024-09-06T11:27:24.000Z</time>
      </trkpt>
      <trkpt lat="41.094615" lon="-112.096676">
        <ele>1291.184934</ele>
        <time>2024-09-06T11:27:25.000Z</time>
      </trkpt>
      <trkpt lat="41.094366" lon="-112.096666">
        <ele>1291.186013</ele>
        <time>2024-09-06T11:27:28.000Z</time>
      </trkpt>
      <trkpt lat="41.094282" lon="-112.09663">
        <ele>1291.186472</ele>
        <time>2024-09-06T11:27:29.000Z</time>
      </trkpt>
      <trkpt lat="41.09362" lon="-112.096272">
        <ele>1291.1804</ele>
        <time>2024-09-06T11:27:37.000Z</time>
      </trkpt>
      <trkpt lat="41.09244" lon="-112.095613">
        <ele>1291.120647</ele>
        <time>2024-09-06T11:27:51.000Z</time>
      </trkpt>
      <trkpt lat="41.092188" lon="-112.09548">
        <ele>1291.107889</ele>
        <time>2024-09-06T11:27:54.000Z</time>
      </trkpt>
      <trkpt lat="41.091999" lon="-112.095426">
        <ele>1291.099588</ele>
        <time>2024-09-06T11:27:56.000Z</time>
      </trkpt>
      <trkpt lat="41.091535" lon="-112.095441">
        <ele>1291.078565</ele>
        <time>2024-09-06T11:28:01.000Z</time>
      </trkpt>
      <trkpt lat="41.090117" lon="-112.095423">
        <ele>1291.012904</ele>
        <time>2024-09-06T11:28:17.000Z</time>
      </trkpt>
      <trkpt lat="41.089224" lon="-112.095437">
        <ele>1290.965606</ele>
        <time>2024-09-06T11:28:27.000Z</time>
      </trkpt>
      <trkpt lat="41.088078" lon="-112.095392">
        <ele>1290.830975</ele>
        <time>2024-09-06T11:28:40.000Z</time>
      </trkpt>
      <trkpt lat="41.087312" lon="-112.095409">
        <ele>1290.666116</ele>
        <time>2024-09-06T11:28:49.000Z</time>
      </trkpt>
      <trkpt lat="41.087224" lon="-112.095363">
        <ele>1290.646148</ele>
        <time>2024-09-06T11:28:50.000Z</time>
      </trkpt>
      <trkpt lat="41.087125" lon="-112.095281">
        <ele>1290.619284</ele>
        <time>2024-09-06T11:28:51.000Z</time>
      </trkpt>
      <trkpt lat="41.086933" lon="-112.095056">
        <ele>1290.564036</ele>
        <time>2024-09-06T11:28:54.000Z</time>
      </trkpt>
      <trkpt lat="41.0867" lon="-112.094906">
        <ele>1290.499867</ele>
        <time>2024-09-06T11:28:57.000Z</time>
      </trkpt>
      <trkpt lat="41.086187" lon="-112.09491">
        <ele>1290.36902</ele>
        <time>2024-09-06T11:29:03.000Z</time>
      </trkpt>
      <trkpt lat="41.086016" lon="-112.094897">
        <ele>1290.32204</ele>
        <time>2024-09-06T11:29:05.000Z</time>
      </trkpt>
      <trkpt lat="41.085294" lon="-112.094911">
        <ele>1290.13825</ele>
        <time>2024-09-06T11:29:13.000Z</time>
      </trkpt>
      <trkpt lat="41.084083" lon="-112.09492">
        <ele>1289.87573</ele>
        <time>2024-09-06T11:29:26.000Z</time>
      </trkpt>
      <trkpt lat="41.083197" lon="-112.094792">
        <ele>1289.688884</ele>
        <time>2024-09-06T11:29:36.000Z</time>
      </trkpt>
      <trkpt lat="41.082417" lon="-112.094715">
        <ele>1289.474213</ele>
        <time>2024-09-06T11:29:45.000Z</time>
      </trkpt>
      <trkpt lat="41.081981" lon="-112.0947">
        <ele>1289.350272</ele>
        <time>2024-09-06T11:29:50.000Z</time>
      </trkpt>
      <trkpt lat="41.081834" lon="-112.094698">
        <ele>1289.306645</ele>
        <time>2024-09-06T11:29:52.000Z</time>
      </trkpt>
      <trkpt lat="41.081704" lon="-112.094636">
        <ele>1289.271067</ele>
        <time>2024-09-06T11:29:54.000Z</time>
      </trkpt>
      <trkpt lat="41.081502" lon="-112.094513">
        <ele>1289.20672</ele>
        <time>2024-09-06T11:29:56.000Z</time>
      </trkpt>
      <trkpt lat="41.08124" lon="-112.094388">
        <ele>1289.172957</ele>
        <time>2024-09-06T11:29:59.000Z</time>
      </trkpt>
      <trkpt lat="41.080473" lon="-112.094242">
        <ele>1289.08616</ele>
        <time>2024-09-06T11:30:08.000Z</time>
      </trkpt>
      <trkpt lat="41.079735" lon="-112.094124">
        <ele>1289.002564</ele>
        <time>2024-09-06T11:30:16.000Z</time>
      </trkpt>
      <trkpt lat="41.078984" lon="-112.094083">
        <ele>1289.000447</ele>
        <time>2024-09-06T11:30:24.000Z</time>
      </trkpt>
      <trkpt lat="41.077754" lon="-112.094062">
        <ele>1288.981741</ele>
        <time>2024-09-06T11:30:38.000Z</time>
      </trkpt>
      <trkpt lat="41.076917" lon="-112.094041">
        <ele>1288.891459</ele>
        <time>2024-09-06T11:30:47.000Z</time>
      </trkpt>
      <trkpt lat="41.076095" lon="-112.094056">
        <ele>1288.801066</ele>
        <time>2024-09-06T11:30:56.000Z</time>
      </trkpt>
      <trkpt lat="41.075277" lon="-112.094069">
        <ele>1288.644246</ele>
        <time>2024-09-06T11:31:05.000Z</time>
      </trkpt>
      <trkpt lat="41.074765" lon="-112.094067">
        <ele>1288.54819</ele>
        <time>2024-09-06T11:31:11.000Z</time>
      </trkpt>
      <trkpt lat="41.074757" lon="-112.093561">
        <ele>1288.4747</ele>
        <time>2024-09-06T11:31:15.000Z</time>
      </trkpt>
      <trkpt lat="41.074752" lon="-112.0915">
        <ele>1288.567202</ele>
        <time>2024-09-06T11:31:32.000Z</time>
      </trkpt>
      <trkpt lat="41.074743" lon="-112.090404">
        <ele>1288.691616</ele>
        <time>2024-09-06T11:31:41.000Z</time>
      </trkpt>
      <trkpt lat="41.074731" lon="-112.089636">
        <ele>1288.804299</ele>
        <time>2024-09-06T11:31:47.000Z</time>
      </trkpt>
      <trkpt lat="41.074726" lon="-112.089391">
        <ele>1288.842401</ele>
        <time>2024-09-06T11:31:49.000Z</time>
      </trkpt>
      <trkpt lat="41.074729" lon="-112.089196">
        <ele>1288.869692</ele>
        <time>2024-09-06T11:31:51.000Z</time>
      </trkpt>
      <trkpt lat="41.074732" lon="-112.089128">
        <ele>1288.879621</ele>
        <time>2024-09-06T11:31:52.000Z</time>
      </trkpt>
      <trkpt lat="41.07473" lon="-112.089059">
        <ele>1288.890888</ele>
        <time>2024-09-06T11:31:53.000Z</time>
      </trkpt>
      <trkpt lat="41.074739" lon="-112.088858">
        <ele>1288.91921</ele>
        <time>2024-09-06T11:31:55.000Z</time>
      </trkpt>
      <trkpt lat="41.074741" lon="-112.088735">
        <ele>1288.938041</ele>
        <time>2024-09-06T11:31:56.000Z</time>
      </trkpt>
      <trkpt lat="41.074726" lon="-112.088551">
        <ele>1288.947192</ele>
        <time>2024-09-06T11:31:58.000Z</time>
      </trkpt>
      <trkpt lat="41.074734" lon="-112.088083">
        <ele>1288.96168</ele>
        <time>2024-09-06T11:32:02.000Z</time>
      </trkpt>
      <trkpt lat="41.074733" lon="-112.087904">
        <ele>1288.967304</ele>
        <time>2024-09-06T11:32:04.000Z</time>
      </trkpt>
      <trkpt lat="41.074726" lon="-112.087536">
        <ele>1288.979133</ele>
        <time>2024-09-06T11:32:07.000Z</time>
      </trkpt>
      <trkpt lat="41.074726" lon="-112.086142">
        <ele>1289.019022</ele>
        <time>2024-09-06T11:32:19.000Z</time>
      </trkpt>
      <trkpt lat="41.074712" lon="-112.084883">
        <ele>1289.033552</ele>
        <time>2024-09-06T11:32:30.000Z</time>
      </trkpt>
      <trkpt lat="41.074707" lon="-112.083886">
        <ele>1289.034383</ele>
        <time>2024-09-06T11:32:38.000Z</time>
      </trkpt>
      <trkpt lat="41.073211" lon="-112.083903">
        <ele>1288.64833</ele>
        <time>2024-09-06T11:32:55.000Z</time>
      </trkpt>
      <trkpt lat="41.071955" lon="-112.083906">
        <ele>1288.248308</ele>
        <time>2024-09-06T11:33:09.000Z</time>
      </trkpt>
      <trkpt lat="41.071821" lon="-112.083897">
        <ele>1288.204373</ele>
        <time>2024-09-06T11:33:10.000Z</time>
      </trkpt>
      <trkpt lat="41.067802" lon="-112.083919">
        <ele>1286.89314</ele>
        <time>2024-09-06T11:33:55.000Z</time>
      </trkpt>
      <trkpt lat="41.063177" lon="-112.083924">
        <ele>1285.424069</ele>
        <time>2024-09-06T11:34:46.000Z</time>
      </trkpt>
      <trkpt lat="41.063048" lon="-112.08394">
        <ele>1285.400852</ele>
        <time>2024-09-06T11:34:47.000Z</time>
      </trkpt>
      <trkpt lat="41.061602" lon="-112.079075">
        <ele>1285.030616</ele>
        <time>2024-09-06T11:35:31.000Z</time>
      </trkpt>
      <trkpt lat="41.061073" lon="-112.077284">
        <ele>1285.002218</ele>
        <time>2024-09-06T11:35:47.000Z</time>
      </trkpt>
      <trkpt lat="41.060417" lon="-112.075339">
        <ele>1285.063554</ele>
        <time>2024-09-06T11:36:05.000Z</time>
      </trkpt>
      <trkpt lat="41.060276" lon="-112.074645">
        <ele>1285.110075</ele>
        <time>2024-09-06T11:36:11.000Z</time>
      </trkpt>
      <trkpt lat="41.060242" lon="-112.074229">
        <ele>1285.137137</ele>
        <time>2024-09-06T11:36:15.000Z</time>
      </trkpt>
      <trkpt lat="41.060257" lon="-112.073537">
        <ele>1285.204307</ele>
        <time>2024-09-06T11:36:21.000Z</time>
      </trkpt>
      <trkpt lat="41.060219" lon="-112.07175">
        <ele>1285.422057</ele>
        <time>2024-09-06T11:36:36.000Z</time>
      </trkpt>
      <trkpt lat="41.060208" lon="-112.069996">
        <ele>1285.745911</ele>
        <time>2024-09-06T11:36:51.000Z</time>
      </trkpt>
      <trkpt lat="41.060216" lon="-112.064698">
        <ele>1286.980182</ele>
        <time>2024-09-06T11:37:35.000Z</time>
      </trkpt>
      <trkpt lat="41.060216" lon="-112.062154">
        <ele>1287.529378</ele>
        <time>2024-09-06T11:37:56.000Z</time>
      </trkpt>
      <trkpt lat="41.060214" lon="-112.061105">
        <ele>1287.753809</ele>
        <time>2024-09-06T11:38:05.000Z</time>
      </trkpt>
      <trkpt lat="41.060235" lon="-112.055137">
        <ele>1288.64617569</ele>
        <time>2024-09-06T11:38:55.000Z</time>
      </trkpt>
      <trkpt lat="41.060298" lon="-112.055142">
        <ele>1288.65869107</ele>
        <time>2024-09-06T11:38:56.000Z</time>
      </trkpt>
      <trkpt lat="41.060794" lon="-112.055165">
        <ele>1288.75710898</ele>
        <time>2024-09-06T11:39:02.000Z</time>
      </trkpt>
    </trkseg>
  </trk>
</gpx>

<!--
Performance optimized by W3 Total Cache. Learn more: https://www.boldgrid.com/w3-total-cache/?utm_source=w3tc&utm_medium=footer_comment&utm_campaign=free_plugin

Page Caching using Disk: Enhanced{w3tc_pagecache_reject_reason} 

Served from: www.aquabike.world @ 2026-05-10 21:41:04 by W3 Total Cache
-->